createdAt,value
2023-01-26T00:01:29.315Z,0.68
2023-01-26T00:03:58.017Z,0.60
2023-01-26T00:06:26.460Z,0.50
2023-01-26T00:08:56.060Z,0.85
2023-01-26T00:11:27.839Z,0.70
2023-01-26T00:13:56.716Z,0.68
2023-01-26T00:16:25.242Z,0.73
2023-01-26T00:18:54.005Z,0.65
2023-01-26T00:21:23.791Z,0.70
2023-01-26T00:23:53.368Z,0.70
2023-01-26T00:26:23.508Z,1.00
2023-01-26T00:28:53.863Z,0.60
2023-01-26T00:31:24.959Z,0.60
2023-01-26T00:33:54.411Z,0.52
2023-01-26T00:36:23.056Z,0.60
2023-01-26T00:38:52.405Z,0.70
2023-01-26T00:41:37.976Z,0.50
2023-01-26T00:44:07.610Z,0.50
2023-01-26T00:46:35.650Z,0.80
2023-01-26T00:49:03.609Z,0.60
2023-01-26T00:51:31.618Z,0.50
2023-01-26T00:53:59.571Z,0.70
2023-01-26T00:56:28.231Z,0.73
2023-01-26T00:58:56.245Z,0.80
2023-01-26T01:01:25.747Z,0.70
2023-01-26T01:03:53.773Z,0.65
2023-01-26T01:06:21.743Z,0.68
2023-01-26T01:08:52.056Z,0.80
2023-01-26T01:11:20.026Z,0.80
2023-01-26T01:13:48.014Z,0.63
2023-01-26T01:16:17.035Z,0.60
2023-01-26T01:18:46.348Z,0.60
2023-01-26T01:21:17.112Z,0.70
2023-01-26T01:23:45.243Z,0.63
2023-01-26T01:26:14.300Z,0.75
2023-01-26T01:28:43.485Z,0.93
2023-01-26T01:31:13.844Z,0.70
2023-01-26T01:33:42.660Z,0.98
2023-01-26T01:36:14.200Z,0.80
2023-01-26T01:38:42.489Z,0.50
2023-01-26T01:41:11.134Z,0.70
2023-01-26T01:43:39.516Z,0.90
2023-01-26T01:46:13.077Z,1.17
2023-01-26T01:48:49.673Z,0.95
2023-01-26T01:51:27.195Z,1.00
2023-01-26T01:53:59.862Z,0.60
2023-01-26T01:56:30.218Z,0.80
2023-01-26T01:59:00.967Z,0.90
2023-01-26T02:01:29.318Z,0.80
2023-01-26T02:04:02.175Z,0.73
2023-01-26T02:06:37.217Z,0.73
2023-01-26T02:09:06.911Z,0.90
2023-01-26T02:11:39.685Z,0.70
2023-01-26T02:14:10.877Z,0.80
2023-01-26T02:16:40.004Z,0.80
2023-01-26T02:19:15.815Z,0.65
2023-01-26T02:21:47.817Z,0.70
2023-01-26T02:24:23.743Z,0.98
2023-01-26T02:26:54.660Z,0.88
2023-01-26T02:29:23.735Z,0.90
2023-01-26T02:31:53.582Z,0.70
2023-01-26T02:34:24.310Z,0.70
2023-01-26T02:36:58.845Z,0.77
2023-01-26T02:39:40.098Z,1.10
2023-01-26T02:42:27.612Z,0.65
2023-01-26T02:44:55.949Z,0.90
2023-01-26T02:47:23.910Z,0.70
2023-01-26T02:49:51.063Z,0.70
2023-01-26T02:52:22.761Z,0.60
2023-01-26T02:55:15.109Z,0.80
2023-01-26T02:57:44.879Z,0.98
2023-01-26T03:00:15.433Z,0.80
2023-01-26T03:02:44.055Z,0.95
2023-01-26T03:05:12.101Z,0.70
2023-01-26T03:07:41.258Z,0.70
2023-01-26T03:10:11.861Z,0.75
2023-01-26T03:12:40.348Z,0.70
2023-01-26T03:15:28.737Z,0.95
2023-01-26T03:18:35.644Z,0.95
2023-01-26T03:21:23.036Z,0.90
2023-01-26T03:24:09.387Z,0.90
2023-01-26T03:26:55.205Z,0.70
2023-01-26T03:29:23.293Z,0.60
2023-01-26T03:31:54.348Z,0.70
2023-01-26T03:34:22.659Z,0.90
2023-01-26T03:36:50.708Z,0.63
2023-01-26T03:39:38.169Z,0.70
2023-01-26T03:42:24.255Z,0.65
2023-01-26T03:45:09.452Z,0.70
2023-01-26T03:47:58.298Z,0.82
2023-01-26T03:50:43.686Z,0.77
2023-01-26T03:53:37.249Z,0.85
2023-01-26T03:56:23.219Z,0.90
2023-01-26T03:58:55.342Z,0.70
2023-01-26T04:01:28.066Z,1.00
2023-01-26T04:04:17.610Z,0.80
2023-01-26T04:07:06.863Z,0.75
2023-01-26T04:09:37.731Z,0.75
2023-01-26T04:12:06.452Z,0.85
2023-01-26T04:14:56.762Z,1.00
2023-01-26T04:17:44.578Z,0.85
2023-01-26T04:20:32.743Z,1.10
2023-01-26T04:23:00.938Z,1.10
2023-01-26T04:25:29.542Z,1.27
2023-01-26T04:27:58.736Z,0.90
2023-01-26T04:30:26.828Z,1.08
2023-01-26T04:32:54.958Z,0.95
2023-01-26T04:35:24.465Z,0.93
2023-01-26T04:37:52.585Z,1.10
2023-01-26T04:40:20.846Z,1.00
2023-01-26T04:42:50.543Z,1.00
2023-01-26T04:45:18.894Z,0.80
2023-01-26T04:47:47.726Z,0.93
2023-01-26T04:50:17.700Z,1.35
2023-01-26T04:52:48.760Z,0.90
2023-01-26T04:55:17.302Z,0.85
2023-01-26T04:57:45.637Z,1.20
2023-01-26T05:00:14.574Z,1.02
2023-01-26T05:02:43.187Z,0.90
2023-01-26T05:05:11.678Z,1.25
2023-01-26T05:07:40.358Z,1.17
2023-01-26T05:10:13.888Z,0.98
2023-01-26T05:12:56.650Z,1.23
2023-01-26T05:15:41.663Z,1.20
2023-01-26T05:18:16.910Z,1.15
2023-01-26T05:21:04.501Z,1.20
2023-01-26T05:23:40.553Z,1.38
2023-01-26T05:26:29.754Z,1.35
2023-01-26T05:29:01.768Z,1.00
2023-01-26T05:31:29.913Z,0.93
2023-01-26T05:33:57.904Z,1.20
2023-01-26T05:36:25.977Z,1.10
2023-01-26T05:38:54.659Z,1.23
2023-01-26T05:41:26.228Z,1.20
2023-01-26T05:44:23.254Z,1.30
2023-01-26T05:46:55.993Z,1.00
2023-01-26T05:49:23.929Z,1.15
2023-01-26T05:51:53.110Z,0.90
2023-01-26T05:54:21.235Z,1.40
2023-01-26T05:56:49.235Z,1.17
2023-01-26T05:59:17.455Z,1.08
2023-01-26T06:01:46.880Z,1.00
2023-01-26T06:04:14.949Z,0.90
2023-01-26T06:06:48.609Z,0.93
2023-01-26T06:09:43.507Z,1.15
2023-01-26T06:12:17.956Z,0.90
2023-01-26T06:14:57.854Z,0.80
2023-01-26T06:17:35.958Z,0.88
2023-01-26T06:20:11.447Z,0.98
2023-01-26T06:22:39.737Z,0.82
2023-01-26T06:25:08.271Z,0.70
2023-01-26T06:27:36.815Z,0.70
2023-01-26T06:30:12.880Z,0.65
2023-01-26T06:32:42.963Z,0.90
2023-01-26T06:35:11.197Z,0.80
2023-01-26T06:37:40.957Z,0.98
2023-01-26T06:40:11.188Z,0.70
2023-01-26T06:42:39.318Z,0.60
2023-01-26T06:45:08.587Z,0.90
2023-01-26T06:47:37.005Z,1.05
2023-01-26T06:50:08.864Z,0.80
2023-01-26T06:52:37.650Z,0.75
2023-01-26T06:55:36.176Z,0.65
2023-01-26T06:58:22.813Z,0.70
2023-01-26T07:01:03.249Z,0.57
2023-01-26T07:03:35.017Z,0.75
2023-01-26T07:06:05.956Z,0.50
2023-01-26T07:08:33.992Z,0.95
2023-01-26T07:11:01.963Z,0.65
2023-01-26T07:13:30.137Z,0.90
2023-01-26T07:16:02.777Z,0.50
2023-01-26T07:18:31.446Z,0.70
2023-01-26T07:21:02.444Z,0.60
2023-01-26T07:23:33.924Z,0.73
2023-01-26T07:26:03.055Z,0.70
2023-01-26T07:28:31.580Z,0.70
2023-01-26T07:31:00.042Z,0.60
2023-01-26T07:33:29.342Z,0.60
2023-01-26T07:35:58.096Z,0.80
2023-01-26T07:38:26.619Z,0.60
2023-01-26T07:40:57.925Z,0.52
2023-01-26T07:43:26.063Z,0.50
2023-01-26T07:45:55.761Z,0.50
2023-01-26T07:48:25.303Z,0.60
2023-01-26T07:50:53.383Z,1.05
2023-01-26T07:53:22.906Z,0.70
2023-01-26T07:55:51.016Z,0.50
2023-01-26T07:58:20.347Z,0.60
2023-01-26T08:00:48.449Z,0.43
2023-01-26T08:03:16.514Z,0.68
2023-01-26T08:05:44.495Z,0.50
2023-01-26T08:08:12.718Z,0.43
2023-01-26T08:10:40.734Z,0.77
2023-01-26T08:13:08.810Z,0.52
2023-01-26T08:15:38.095Z,0.40
2023-01-26T08:18:06.175Z,0.45
2023-01-26T08:20:35.213Z,0.50
2023-01-26T08:23:03.229Z,0.45
2023-01-26T08:25:32.923Z,0.90
2023-01-26T08:28:00.927Z,0.60
2023-01-26T08:30:28.797Z,0.60
2023-01-26T08:32:58.939Z,0.47
2023-01-26T08:35:26.966Z,0.50
2023-01-26T08:37:54.916Z,0.43
2023-01-26T08:40:24.744Z,0.40
2023-01-26T08:42:52.952Z,0.30
2023-01-26T08:45:21.121Z,0.50
2023-01-26T08:47:51.467Z,0.40
2023-01-26T08:50:20.959Z,0.35
2023-01-26T08:52:48.903Z,0.60
2023-01-26T08:55:17.034Z,0.40
2023-01-26T08:57:45.216Z,0.50
2023-01-26T09:00:14.917Z,0.50
2023-01-26T09:02:43.283Z,0.40
2023-01-26T09:05:11.604Z,0.40
2023-01-26T09:07:40.953Z,0.57
2023-01-26T09:10:10.914Z,0.55
2023-01-26T09:12:41.061Z,0.30
2023-01-26T09:15:10.200Z,0.60
2023-01-26T09:17:38.338Z,0.50
2023-01-26T09:20:08.295Z,0.38
2023-01-26T09:22:36.339Z,0.40
2023-01-26T09:25:06.536Z,0.20
2023-01-26T09:27:34.582Z,0.40
2023-01-26T09:30:02.841Z,0.30
2023-01-26T09:32:31.056Z,0.40
2023-01-26T09:34:59.056Z,0.20
2023-01-26T09:37:27.197Z,0.30
2023-01-26T09:39:55.183Z,0.45
2023-01-26T09:42:39.053Z,0.20
2023-01-26T09:45:22.953Z,0.20
2023-01-26T09:48:16.859Z,0.45
2023-01-26T09:50:49.731Z,0.40
2023-01-26T09:53:23.032Z,0.38
2023-01-26T09:55:52.421Z,0.47
2023-01-26T09:58:31.364Z,0.30
2023-01-26T10:01:02.412Z,0.40
2023-01-26T10:03:37.117Z,0.40
2023-01-26T10:06:15.338Z,0.40
2023-01-26T10:09:07.293Z,0.30
2023-01-26T10:11:40.298Z,0.50
2023-01-26T10:14:16.701Z,0.30
2023-01-26T10:16:48.288Z,0.40
2023-01-26T10:19:26.836Z,0.30
2023-01-26T10:21:58.727Z,0.30
2023-01-26T10:24:26.693Z,0.30
2023-01-26T10:26:58.247Z,0.30
2023-01-26T10:29:27.696Z,0.40
2023-01-26T10:31:56.229Z,0.22
2023-01-26T10:34:27.257Z,0.20
2023-01-26T10:37:03.055Z,0.30
2023-01-26T10:39:31.014Z,0.30
2023-01-26T10:42:00.319Z,0.30
2023-01-26T10:44:34.995Z,0.40
2023-01-26T10:47:06.120Z,0.30
2023-01-26T10:49:34.344Z,0.50
2023-01-26T10:52:17.541Z,0.47
2023-01-26T10:54:45.829Z,0.50
2023-01-26T10:57:24.728Z,0.77
2023-01-26T10:59:58.015Z,0.50
2023-01-26T11:02:28.844Z,0.40
2023-01-26T11:05:19.480Z,0.60
2023-01-26T11:07:50.023Z,0.50
2023-01-26T11:10:25.335Z,0.30
2023-01-26T11:13:07.988Z,0.40
2023-01-26T11:15:39.864Z,0.32
2023-01-26T11:18:19.956Z,0.57
2023-01-26T11:20:58.674Z,0.38
2023-01-26T11:23:38.973Z,0.40
2023-01-26T11:26:25.880Z,0.50
2023-01-26T11:29:09.277Z,0.40
2023-01-26T11:31:50.848Z,0.40
2023-01-26T11:34:29.221Z,0.20
2023-01-26T11:37:27.689Z,0.63
2023-01-26T11:40:04.852Z,0.60
2023-01-26T11:42:39.865Z,0.30
2023-01-26T11:45:23.109Z,0.40
2023-01-26T11:48:12.370Z,0.30
2023-01-26T11:50:46.681Z,0.35
2023-01-26T11:53:32.789Z,0.57
2023-01-26T11:56:14.393Z,0.38
2023-01-26T11:58:46.360Z,0.50
2023-01-26T12:01:20.327Z,0.60
2023-01-26T12:03:51.643Z,0.38
2023-01-26T12:06:21.645Z,0.30
2023-01-26T12:08:54.769Z,0.40
2023-01-26T12:11:27.401Z,0.40
2023-01-26T12:14:09.009Z,0.60
2023-01-26T12:16:46.174Z,0.40
2023-01-26T12:19:27.906Z,0.52
2023-01-26T12:22:01.833Z,0.40
2023-01-26T12:25:04.973Z,0.40
2023-01-26T12:27:30.715Z,0.40
2023-01-26T12:30:09.664Z,0.45
2023-01-26T12:32:37.686Z,0.45
2023-01-26T12:35:12.516Z,0.60
2023-01-26T12:37:53.851Z,0.90
2023-01-26T12:40:32.459Z,0.98
2023-01-26T12:43:17.507Z,1.17
2023-01-26T12:45:49.232Z,1.23
2023-01-26T12:48:23.241Z,0.90
2023-01-26T12:50:57.077Z,1.95
2023-01-26T12:53:32.080Z,1.10
2023-01-26T12:56:11.454Z,1.13
2023-01-26T12:58:43.076Z,1.60
2023-01-26T13:01:13.918Z,1.58
2023-01-26T13:03:45.045Z,1.23
2023-01-26T13:06:25.637Z,0.95
2023-01-26T13:09:04.372Z,1.10
2023-01-26T13:11:47.379Z,1.00
2023-01-26T13:14:40.005Z,0.70
2023-01-26T13:17:55.771Z,1.48
2023-01-26T13:20:43.374Z,0.90
2023-01-26T13:23:43.883Z,1.00
2023-01-26T13:26:41.314Z,0.88
2023-01-26T13:29:35.459Z,0.98
2023-01-26T13:32:55.197Z,0.93
2023-01-26T13:35:25.631Z,1.38
2023-01-26T13:38:01.830Z,2.10
2023-01-26T13:40:34.480Z,1.10
2023-01-26T13:43:25.307Z,0.93
2023-01-26T13:46:05.065Z,0.80
2023-01-26T13:48:45.164Z,1.25
2023-01-26T13:51:18.406Z,0.70
2023-01-26T13:53:51.153Z,1.13
2023-01-26T13:56:26.579Z,0.98
2023-01-26T13:58:55.026Z,0.90
2023-01-26T14:01:22.954Z,0.65
2023-01-26T14:04:03.902Z,0.60
2023-01-26T14:06:32.554Z,1.10
2023-01-26T14:09:00.579Z,0.65
2023-01-26T14:11:33.452Z,0.88
2023-01-26T14:14:03.092Z,0.90
2023-01-26T14:16:33.375Z,0.75
2023-01-26T14:19:07.330Z,0.50
2023-01-26T14:21:47.484Z,0.50
2023-01-26T14:24:15.546Z,0.65
2023-01-26T14:26:45.193Z,0.63
2023-01-26T14:29:20.705Z,0.80
2023-01-26T14:31:49.771Z,0.47
2023-01-26T14:34:22.426Z,0.70
2023-01-26T14:37:05.333Z,0.85
2023-01-26T14:39:33.412Z,0.47
2023-01-26T14:42:03.724Z,0.70
2023-01-26T14:44:31.813Z,0.60
2023-01-26T14:47:05.720Z,0.70
2023-01-26T14:49:44.475Z,0.68
2023-01-26T14:52:20.886Z,0.80
2023-01-26T14:54:50.291Z,0.80
2023-01-26T14:57:21.901Z,0.85
2023-01-26T14:59:52.654Z,0.70
2023-01-26T15:02:22.836Z,1.77
2023-01-26T15:04:55.415Z,1.27
2023-01-26T15:07:34.518Z,1.50
2023-01-26T15:10:03.511Z,0.77
2023-01-26T15:12:36.865Z,0.90
2023-01-26T15:15:14.126Z,0.90
2023-01-26T15:17:43.564Z,0.57
2023-01-26T15:20:40.020Z,0.77
2023-01-26T15:23:23.516Z,1.05
2023-01-26T15:25:51.682Z,1.25
2023-01-26T15:28:25.849Z,0.70
2023-01-26T15:30:57.187Z,2.15
2023-01-26T15:33:45.570Z,1.10
2023-01-26T15:36:29.019Z,0.70
2023-01-26T15:39:00.990Z,0.70
2023-01-26T15:41:29.806Z,0.70
2023-01-26T15:43:59.596Z,0.95
2023-01-26T15:46:27.995Z,0.77
2023-01-26T15:48:56.078Z,1.30
2023-01-26T15:51:24.113Z,1.00
2023-01-26T15:53:52.010Z,1.33
2023-01-26T15:56:20.042Z,1.30
2023-01-26T15:58:48.023Z,1.08
2023-01-26T16:01:21.814Z,1.20
2023-01-26T16:03:50.410Z,1.33
2023-01-26T16:06:25.108Z,1.50
2023-01-26T16:08:53.729Z,1.17
2023-01-26T16:11:22.316Z,1.00
2023-01-26T16:14:02.429Z,1.00
2023-01-26T16:16:32.770Z,1.00
2023-01-26T16:19:01.042Z,1.00
2023-01-26T16:21:33.227Z,0.98
2023-01-26T16:24:01.963Z,0.77
2023-01-26T16:26:30.609Z,1.05
2023-01-26T16:28:58.949Z,1.10
2023-01-26T16:31:29.777Z,0.95
2023-01-26T16:33:59.927Z,1.02
2023-01-26T16:36:28.168Z,1.33
2023-01-26T16:38:56.238Z,1.30
2023-01-26T16:41:27.146Z,1.13
2023-01-26T16:43:56.522Z,1.20
2023-01-26T16:46:24.917Z,1.55
2023-01-26T16:48:53.199Z,1.08
2023-01-26T16:51:26.393Z,1.45
2023-01-26T16:53:55.539Z,1.20
2023-01-26T16:56:25.507Z,1.20
2023-01-26T16:58:53.513Z,1.23
2023-01-26T17:01:23.234Z,1.23
2023-01-26T17:03:52.006Z,1.00
2023-01-26T17:06:21.941Z,1.02
2023-01-26T17:08:50.581Z,1.00
2023-01-26T17:11:20.635Z,1.00
2023-01-26T17:13:49.259Z,0.95
2023-01-26T17:16:19.625Z,0.95
2023-01-26T17:18:48.640Z,1.45
2023-01-26T17:21:19.076Z,1.20
2023-01-26T17:23:51.164Z,1.25
2023-01-26T17:26:19.806Z,1.13
2023-01-26T17:28:50.106Z,1.13
2023-01-26T17:31:20.634Z,0.85
2023-01-26T17:33:50.842Z,0.90
2023-01-26T17:36:20.056Z,1.10
2023-01-26T17:38:48.356Z,1.08
2023-01-26T17:41:18.036Z,1.20
2023-01-26T17:43:46.168Z,1.23
2023-01-26T17:46:16.208Z,1.00
2023-01-26T17:48:45.530Z,1.17
2023-01-26T17:51:16.545Z,1.02
2023-01-26T17:53:46.323Z,1.30
2023-01-26T17:56:16.866Z,1.02
2023-01-26T17:58:49.714Z,1.00
2023-01-26T18:01:17.875Z,1.17
2023-01-26T18:03:45.850Z,1.10
2023-01-26T18:06:14.322Z,1.20
2023-01-26T18:08:42.766Z,1.02
2023-01-26T18:11:13.116Z,1.17
2023-01-26T18:13:41.682Z,1.30
2023-01-26T18:16:15.196Z,1.10
2023-01-26T18:18:43.377Z,1.27
2023-01-26T18:21:12.929Z,1.25
2023-01-26T18:23:41.095Z,0.95
2023-01-26T18:26:09.090Z,1.02
2023-01-26T18:28:37.120Z,1.25
2023-01-26T18:31:14.374Z,1.20
2023-01-26T18:33:42.837Z,1.15
2023-01-26T18:36:13.228Z,0.90
2023-01-26T18:38:42.499Z,1.08
2023-01-26T18:41:12.277Z,1.00
2023-01-26T18:43:40.504Z,1.30
2023-01-26T18:46:08.647Z,1.10
2023-01-26T18:48:38.142Z,1.15
2023-01-26T18:51:07.329Z,1.00
2023-01-26T18:53:37.177Z,1.00
2023-01-26T18:56:06.490Z,0.90
2023-01-26T18:58:35.075Z,1.02
2023-01-26T19:01:05.716Z,1.00
2023-01-26T19:03:34.210Z,1.10
2023-01-26T19:06:04.269Z,0.80
2023-01-26T19:08:34.352Z,0.82
2023-01-26T19:11:05.594Z,0.80
2023-01-26T19:13:33.594Z,1.00
2023-01-26T19:16:01.562Z,1.17
2023-01-26T19:18:29.519Z,0.85
2023-01-26T19:20:58.093Z,1.02
2023-01-26T19:23:27.629Z,0.82
2023-01-26T19:25:55.734Z,0.70
2023-01-26T19:28:23.854Z,0.60
2023-01-26T19:30:51.840Z,0.70
2023-01-26T19:33:25.857Z,0.70
2023-01-26T19:35:53.920Z,0.80
2023-01-26T19:38:22.174Z,0.93
2023-01-26T19:40:52.939Z,0.70
2023-01-26T19:43:21.724Z,0.90
2023-01-26T19:45:53.027Z,0.80
2023-01-26T19:48:22.070Z,0.90
2023-01-26T19:51:03.057Z,0.70
2023-01-26T19:53:31.841Z,0.80
2023-01-26T19:56:05.578Z,1.02
2023-01-26T19:58:33.701Z,0.70
2023-01-26T20:01:02.755Z,0.73
2023-01-26T20:03:31.056Z,0.60
2023-01-26T20:05:59.301Z,0.88
2023-01-26T20:08:28.221Z,0.65
2023-01-26T20:11:02.874Z,0.80
2023-01-26T20:13:32.397Z,0.60
2023-01-26T20:16:00.647Z,0.90
2023-01-26T20:18:28.673Z,0.63
2023-01-26T20:21:00.416Z,0.65
2023-01-26T20:23:29.656Z,0.65
2023-01-26T20:26:02.565Z,1.00
2023-01-26T20:28:32.091Z,0.75
2023-01-26T20:31:07.769Z,0.70
2023-01-26T20:33:36.758Z,0.57
2023-01-26T20:36:07.574Z,0.82
2023-01-26T20:38:36.035Z,0.65
2023-01-26T20:41:08.288Z,0.60
2023-01-26T20:43:41.595Z,0.73
2023-01-26T20:46:17.748Z,1.10
2023-01-26T20:48:46.436Z,0.50
2023-01-26T20:51:16.959Z,0.52
2023-01-26T20:53:46.850Z,0.70
2023-01-26T20:56:15.185Z,0.60
2023-01-26T20:58:44.806Z,0.55
2023-01-26T21:01:14.804Z,0.93
2023-01-26T21:03:43.302Z,0.60
2023-01-26T21:06:13.451Z,0.68
2023-01-26T21:08:42.309Z,0.60
2023-01-26T21:11:13.919Z,0.50
2023-01-26T21:13:42.712Z,0.60
2023-01-26T21:16:14.638Z,0.60
2023-01-26T21:18:42.820Z,0.60
2023-01-26T21:21:13.600Z,0.65
2023-01-26T21:23:42.170Z,0.55
2023-01-26T21:26:13.712Z,0.75
2023-01-26T21:28:41.713Z,0.47
2023-01-26T21:31:13.734Z,0.57
2023-01-26T21:33:43.839Z,0.45
2023-01-26T21:36:14.247Z,0.68
2023-01-26T21:38:43.976Z,0.35
2023-01-26T21:41:27.241Z,0.50
2023-01-26T21:43:56.842Z,0.50
2023-01-26T21:46:26.167Z,0.50
2023-01-26T21:48:54.164Z,0.60
2023-01-26T21:51:40.396Z,0.50
2023-01-26T21:54:08.536Z,0.80
2023-01-26T21:56:37.081Z,0.70
2023-01-26T21:59:07.694Z,0.50
2023-01-26T22:01:39.231Z,0.47
2023-01-26T22:04:09.919Z,0.50
2023-01-26T22:06:39.168Z,0.70
2023-01-26T22:09:09.082Z,0.82
2023-01-26T22:11:37.103Z,0.60
2023-01-26T22:14:05.145Z,0.73
2023-01-26T22:16:33.558Z,0.60
2023-01-26T22:19:03.705Z,0.40
2023-01-26T22:21:32.475Z,0.70
2023-01-26T22:24:00.517Z,0.45
2023-01-26T22:26:28.620Z,0.68
2023-01-26T22:28:58.153Z,0.40
2023-01-26T22:31:28.063Z,0.60
2023-01-26T22:33:57.310Z,0.38
2023-01-26T22:36:27.601Z,0.40
2023-01-26T22:38:55.838Z,0.50
2023-01-26T22:41:25.745Z,0.40
2023-01-26T22:43:55.697Z,0.55
2023-01-26T22:46:25.323Z,0.47
2023-01-26T22:48:53.660Z,0.40
2023-01-26T22:51:23.684Z,0.40
2023-01-26T22:53:54.571Z,0.50
2023-01-26T22:56:23.161Z,0.50
2023-01-26T22:58:57.965Z,0.30
2023-01-26T23:01:28.464Z,0.30
2023-01-26T23:03:57.279Z,0.40
2023-01-26T23:06:25.664Z,0.40
2023-01-26T23:08:55.348Z,0.43
2023-01-26T23:11:26.068Z,0.20
2023-01-26T23:13:55.671Z,0.45
2023-01-26T23:16:24.680Z,0.73
2023-01-26T23:18:53.673Z,0.30
2023-01-26T23:21:22.228Z,0.30
2023-01-26T23:23:50.565Z,0.50
2023-01-26T23:26:20.533Z,0.40
2023-01-26T23:28:48.920Z,0.50
2023-01-26T23:31:18.594Z,0.50
2023-01-26T23:33:47.035Z,0.52
2023-01-26T23:36:16.172Z,0.40
2023-01-26T23:38:45.652Z,0.40
2023-01-26T23:41:14.434Z,0.35
2023-01-26T23:43:44.094Z,0.30
2023-01-26T23:46:13.262Z,0.38
2023-01-26T23:48:41.638Z,0.43
2023-01-26T23:51:11.809Z,0.50
2023-01-26T23:53:40.045Z,0.40
2023-01-26T23:56:09.669Z,0.60
2023-01-26T23:58:38.392Z,0.50
